Time;durP1;ratioP1;P1;durP2;ratioP2;P2;SDS_P1;SDS_P2;PMS_P1;PMS_P2;Temp;Humidity;BMP_temperature;BMP_pressure;BME280_temperature;BME280_humidity;BME280_pressure;Samples;Min_cycle;Max_cycle;Signal;HPM_P1;HPM_P2
2023/08/24 00:01:22;;;;;;;10.13;3.33;;;;;;;18.02;73.73;102031.84;7401889;19;19918;-78
2023/08/24 00:03:51;;;;;;;8.75;3.22;;;;;;;18.02;73.53;102028.25;7401167;19;19918;-79
2023/08/24 00:06:20;;;;;;;7.63;3.28;;;;;;;18.00;73.34;102030.31;7401130;19;19915;-79
2023/08/24 00:08:52;;;;;;;5.53;4.10;;;;;;;17.94;73.56;102031.13;7399870;19;19914;-79
2023/08/24 00:11:20;;;;;;;6.35;3.63;;;;;;;17.89;73.97;102029.00;7405083;19;19918;-79
2023/08/24 00:13:52;;;;;;;5.85;3.30;;;;;;;17.87;73.44;102030.22;7408551;19;19927;-79
2023/08/24 00:16:21;;;;;;;7.05;3.67;;;;;;;17.84;73.79;102017.00;7409508;19;20256;-79
2023/08/24 00:18:50;;;;;;;6.63;3.72;;;;;;;17.80;73.81;102024.72;7410245;19;19982;-79
2023/08/24 00:21:22;;;;;;;7.55;3.65;;;;;;;17.78;73.83;102018.59;7415240;19;19914;-79
2023/08/24 00:23:54;;;;;;;6.80;3.65;;;;;;;17.74;73.84;102019.19;7415177;19;19911;-79
2023/08/24 00:26:23;;;;;;;9.48;2.92;;;;;;;17.71;74.15;102016.88;7410131;19;20379;-79
2023/08/24 00:28:51;;;;;;;4.53;3.03;;;;;;;17.68;73.76;102020.84;7407616;19;19919;-79
2023/08/24 00:31:20;;;;;;;8.27;3.53;;;;;;;17.66;73.90;102012.00;7406141;19;19918;-79
2023/08/24 00:33:50;;;;;;;5.72;3.05;;;;;;;17.66;74.01;102009.28;7406903;19;19922;-79
2023/08/24 00:36:20;;;;;;;5.85;2.75;;;;;;;17.61;74.71;102007.16;7406625;19;19919;-79
2023/08/24 00:38:51;;;;;;;5.03;2.92;;;;;;;17.52;74.61;102004.72;7404831;19;19936;-79
2023/08/24 00:41:24;;;;;;;3.95;2.97;;;;;;;17.46;74.83;102000.06;7406527;19;19922;-79
2023/08/24 00:43:53;;;;;;;6.45;2.75;;;;;;;17.41;74.90;102002.50;7406150;19;19918;-79
2023/08/24 00:46:22;;;;;;;5.28;2.75;;;;;;;17.35;74.51;101992.38;7406365;19;19907;-79
2023/08/24 00:48:51;;;;;;;4.75;3.10;;;;;;;17.33;74.84;102002.66;7406296;19;20270;-79
2023/08/24 00:51:20;;;;;;;5.18;2.83;;;;;;;17.29;75.06;101993.19;7406195;19;19938;-79
2023/08/24 00:53:49;;;;;;;5.70;2.75;;;;;;;17.28;74.71;101994.19;7406174;19;19911;-79
2023/08/24 00:56:19;;;;;;;4.55;2.92;;;;;;;17.26;74.86;102001.75;7405979;19;19910;-79
2023/08/24 00:58:51;;;;;;;9.95;4.38;;;;;;;17.24;75.09;102001.94;7403917;19;20300;-79
2023/08/24 01:01:20;;;;;;;4.32;3.92;;;;;;;17.23;75.22;101998.34;7406001;19;19922;-79
2023/08/24 01:03:49;;;;;;;6.53;3.72;;;;;;;17.23;75.40;102001.06;7405955;19;20353;-79
2023/08/24 01:06:18;;;;;;;6.50;3.58;;;;;;;17.23;75.53;101992.91;7406013;19;19929;-79
2023/08/24 01:08:47;;;;;;;7.50;3.85;;;;;;;17.24;75.77;101985.59;7404545;19;19915;-79
2023/08/24 01:11:28;;;;;;;8.15;3.88;;;;;;;17.20;76.08;101990.56;7406030;19;19946;-79
2023/08/24 01:14:07;;;;;;;7.18;4.00;;;;;;;17.19;76.13;101986.16;7405928;19;19911;-79
2023/08/24 01:16:40;;;;;;;6.85;4.20;;;;;;;17.21;75.82;101980.53;7406486;19;20372;-79
2023/08/24 01:19:15;;;;;;;6.00;3.38;;;;;;;17.23;75.85;101973.00;7405595;19;19926;-79
2023/08/24 01:21:44;;;;;;;6.75;3.50;;;;;;;17.21;75.82;101981.34;7404601;19;19927;-79
2023/08/24 01:24:19;;;;;;;6.05;4.07;;;;;;;17.19;75.80;101982.59;7405818;19;19946;-79
2023/08/24 01:26:51;;;;;;;7.63;3.92;;;;;;;17.18;76.07;101989.06;7405138;19;19946;-79
2023/08/24 01:29:20;;;;;;;6.68;3.67;;;;;;;17.18;76.22;101984.47;7405358;19;19942;-78
2023/08/24 01:31:50;;;;;;;6.05;4.15;;;;;;;17.17;75.76;101973.78;7405072;19;19919;-79
2023/08/24 01:34:19;;;;;;;9.30;4.13;;;;;;;17.14;76.42;101985.91;7405629;19;20351;-79
2023/08/24 01:36:48;;;;;;;4.68;4.13;;;;;;;17.12;76.15;101982.53;7404213;19;19953;-79
2023/08/24 01:39:30;;;;;;;9.85;3.90;;;;;;;17.10;76.62;101981.88;7405398;19;19919;-79
2023/08/24 01:42:06;;;;;;;7.43;3.70;;;;;;;17.12;76.87;101984.41;7405622;19;20347;-79
2023/08/24 01:44:40;;;;;;;9.82;3.97;;;;;;;17.17;76.79;101977.31;7405797;19;19930;-79
2023/08/24 01:47:13;;;;;;;7.05;4.45;;;;;;;17.19;76.78;101972.53;7406920;19;19926;-79
2023/08/24 01:49:43;;;;;;;5.28;4.28;;;;;;;17.20;76.61;101968.78;7407558;19;20280;-79
2023/08/24 01:52:12;;;;;;;8.40;4.05;;;;;;;17.18;77.22;101965.41;7405720;19;19918;-79
2023/08/24 01:54:42;;;;;;;8.23;4.68;;;;;;;17.17;76.83;101958.25;7406453;19;19929;-79
2023/08/24 01:57:13;;;;;;;6.55;4.35;;;;;;;17.14;77.19;101955.94;7404643;19;19915;-79
2023/08/24 01:59:43;;;;;;;7.55;4.10;;;;;;;17.13;77.09;101956.97;7404771;19;19923;-78
2023/08/24 02:02:12;;;;;;;7.82;4.00;;;;;;;17.12;77.03;101947.13;7403993;19;19946;-79
2023/08/24 02:04:42;;;;;;;5.35;4.28;;;;;;;17.13;77.53;101945.22;7404250;19;19918;-79
2023/08/24 02:07:11;;;;;;;10.32;4.45;;;;;;;17.14;77.13;101942.31;7404236;19;19915;-78
2023/08/24 02:09:40;;;;;;;7.25;4.30;;;;;;;17.13;77.65;101940.63;7402571;19;20137;-79
2023/08/24 02:12:09;;;;;;;5.60;3.53;;;;;;;17.10;77.58;101935.59;7405053;19;19922;-79
2023/08/24 02:14:40;;;;;;;7.45;3.90;;;;;;;17.13;77.49;101937.91;7404241;19;20574;-79
2023/08/24 02:17:09;;;;;;;6.18;4.13;;;;;;;17.11;77.14;101931.81;7405286;19;20015;-79
2023/08/24 02:19:37;;;;;;;7.07;3.95;;;;;;;17.08;77.48;101924.06;7404417;19;19954;-79
2023/08/24 02:22:06;;;;;;;8.68;4.45;;;;;;;17.07;77.55;101927.81;7405868;19;19919;-79
2023/08/24 02:24:35;;;;;;;7.05;4.25;;;;;;;17.07;77.76;101935.13;7406384;19;20190;-79
2023/08/24 02:27:03;;;;;;;8.45;4.95;;;;;;;17.07;77.54;101932.41;7404172;19;19919;-79
2023/08/24 02:29:32;;;;;;;9.63;4.30;;;;;;;17.09;77.50;101938.50;7403632;19;19914;-79
2023/08/24 02:32:04;;;;;;;8.52;5.55;;;;;;;17.09;77.98;101939.34;7403936;19;19919;-78
2023/08/24 02:34:32;;;;;;;9.27;5.22;;;;;;;17.12;78.36;101946.28;7401125;19;19915;-79
2023/08/24 02:37:01;;;;;;;8.23;5.25;;;;;;;17.14;78.23;101939.59;7403312;19;19919;-78
2023/08/24 02:39:30;;;;;;;7.10;5.05;;;;;;;17.17;78.09;101941.13;7403822;19;19921;-79
2023/08/24 02:41:58;;;;;;;8.43;5.20;;;;;;;17.15;77.75;101938.56;7404541;19;19936;-78
2023/08/24 02:44:27;;;;;;;5.53;4.10;;;;;;;17.14;78.10;101939.59;7403745;19;19914;-78
2023/08/24 02:46:57;;;;;;;6.32;4.50;;;;;;;17.15;78.10;101940.44;7403349;19;19915;-78
2023/08/24 02:49:28;;;;;;;6.45;4.32;;;;;;;17.11;78.08;101945.44;7403514;19;19947;-78
2023/08/24 02:51:56;;;;;;;7.50;4.60;;;;;;;17.08;77.91;101943.13;7403364;19;20018;-79
2023/08/24 02:54:25;;;;;;;6.45;4.78;;;;;;;17.09;78.42;101943.94;7402805;19;19922;-78
2023/08/24 02:56:54;;;;;;;7.07;4.28;;;;;;;17.05;78.39;101938.03;7403751;19;19922;-79
2023/08/24 02:59:22;;;;;;;10.00;4.32;;;;;;;17.03;78.11;101934.69;7401179;19;19919;-78
2023/08/24 03:01:52;;;;;;;6.07;4.47;;;;;;;17.04;78.40;101938.25;7402821;19;19919;-78
2023/08/24 03:04:21;;;;;;;6.28;4.35;;;;;;;17.04;78.07;101947.22;7402532;19;19929;-78
2023/08/24 03:06:52;;;;;;;6.68;4.53;;;;;;;17.04;78.59;101930.09;7402654;19;19911;-79
2023/08/24 03:09:21;;;;;;;5.70;4.45;;;;;;;17.02;78.52;101922.09;7401150;19;19927;-78
2023/08/24 03:11:50;;;;;;;6.93;4.50;;;;;;;17.03;78.42;101917.50;7402415;19;19925;-78
2023/08/24 03:14:18;;;;;;;5.68;4.32;;;;;;;17.04;78.13;101924.63;7402923;19;19923;-78
2023/08/24 03:16:47;;;;;;;7.45;4.43;;;;;;;17.03;78.54;101925.66;7402041;19;19919;-79
2023/08/24 03:19:17;;;;;;;6.75;4.18;;;;;;;17.03;78.35;101920.22;7401026;19;19944;-79
2023/08/24 03:21:46;;;;;;;4.68;3.80;;;;;;;17.03;78.88;101920.22;7402238;19;19922;-79
2023/08/24 03:24:17;;;;;;;6.00;4.32;;;;;;;17.04;78.84;101911.84;7401875;19;19919;-79
2023/08/24 03:26:46;;;;;;;8.30;4.22;;;;;;;17.02;79.31;101913.94;7402422;19;20375;-79
2023/08/24 03:29:14;;;;;;;8.88;4.43;;;;;;;17.04;79.48;101908.31;7401894;19;19950;-79
2023/08/24 03:31:43;;;;;;;7.80;4.43;;;;;;;17.04;79.28;101908.31;7403109;19;19923;-78
2023/08/24 03:34:12;;;;;;;9.93;4.20;;;;;;;17.09;79.06;101900.38;7404508;19;19942;-79
2023/08/24 03:36:40;;;;;;;8.32;4.22;;;;;;;17.11;79.29;101899.16;7405095;19;19911;-79
2023/08/24 03:39:09;;;;;;;9.07;4.50;;;;;;;17.12;79.26;101900.00;7405877;19;19922;-79
2023/08/24 03:41:40;;;;;;;5.03;3.97;;;;;;;17.09;79.28;101898.50;7409110;19;19918;-78
2023/08/24 03:44:09;;;;;;;7.82;4.20;;;;;;;17.07;79.31;101900.59;7409607;19;19926;-78
2023/08/24 03:46:37;;;;;;;8.15;4.45;;;;;;;17.03;78.97;101912.91;7410681;19;19918;-78
2023/08/24 03:49:06;;;;;;;7.45;4.15;;;;;;;16.99;79.52;101908.03;7408683;19;20340;-78
2023/08/24 03:51:34;;;;;;;8.32;4.50;;;;;;;16.96;79.31;101911.13;7408766;19;19945;-78
2023/08/24 03:54:05;;;;;;;9.27;4.97;;;;;;;16.93;79.40;101914.25;7408099;19;19921;-78
2023/08/24 03:56:34;;;;;;;8.10;4.53;;;;;;;16.89;79.62;101911.06;7408455;19;20356;-78
2023/08/24 03:59:05;;;;;;;9.05;5.20;;;;;;;16.88;79.25;101925.69;7405372;19;19937;-78
2023/08/24 04:01:33;;;;;;;8.23;5.00;;;;;;;16.87;79.55;101923.19;7407873;19;19923;-78
2023/08/24 04:04:03;;;;;;;8.32;4.85;;;;;;;16.88;79.38;101922.13;7406903;19;19918;-79
2023/08/24 04:06:32;;;;;;;8.63;4.60;;;;;;;16.89;79.29;101915.66;7407494;19;19934;-78
2023/08/24 04:09:00;;;;;;;6.03;4.35;;;;;;;16.86;79.61;101911.47;7405087;19;19921;-78
2023/08/24 04:11:29;;;;;;;7.05;4.28;;;;;;;16.83;79.58;101900.94;7407394;19;19918;-78
2023/08/24 04:13:58;;;;;;;7.00;5.03;;;;;;;16.80;80.38;101912.22;7407500;19;19943;-78
2023/08/24 04:16:29;;;;;;;12.90;4.10;;;;;;;16.77;80.13;101912.63;7406693;19;19923;-78
2023/08/24 04:18:57;;;;;;;7.43;3.92;;;;;;;16.76;80.27;101905.47;7405456;19;19929;-78
2023/08/24 04:21:26;;;;;;;7.53;4.18;;;;;;;16.78;80.02;101908.88;7406807;19;19922;-78
2023/08/24 04:23:55;;;;;;;8.00;4.20;;;;;;;16.79;79.95;101913.25;7407535;19;19919;-78
2023/08/24 04:26:24;;;;;;;4.85;3.80;;;;;;;16.83;80.07;101921.91;7406877;19;19915;-78
2023/08/24 04:28:52;;;;;;;8.13;4.95;;;;;;;16.85;80.35;101908.94;7406676;19;19911;-78
2023/08/24 04:31:21;;;;;;;8.07;4.25;;;;;;;16.84;80.54;101902.63;7405927;19;20386;-78
2023/08/24 04:33:52;;;;;;;6.95;4.40;;;;;;;16.84;80.08;101913.53;7406620;19;19928;-78
2023/08/24 04:36:21;;;;;;;8.77;4.72;;;;;;;16.84;80.28;101915.41;7407411;19;19922;-79
2023/08/24 04:38:49;;;;;;;8.90;4.80;;;;;;;16.85;80.80;101925.25;7408282;19;19922;-78
2023/08/24 04:41:18;;;;;;;8.60;4.82;;;;;;;16.85;80.55;101925.25;7407082;19;19923;-78
2023/08/24 04:43:47;;;;;;;6.72;4.88;;;;;;;16.87;80.56;101926.72;7407776;19;19978;-78
2023/08/24 04:46:15;;;;;;;8.88;5.22;;;;;;;16.89;80.93;101930.13;7407779;19;20353;-78
2023/08/24 04:48:44;;;;;;;8.32;5.65;;;;;;;16.91;80.72;101919.91;7409520;19;20031;-79
2023/08/24 04:51:15;;;;;;;8.88;5.00;;;;;;;16.91;80.80;101898.13;7410025;19;20352;-78
2023/08/24 04:53:44;;;;;;;5.80;4.40;;;;;;;16.90;80.83;101896.44;7410769;19;19934;-78
2023/08/24 04:56:12;;;;;;;8.25;4.13;;;;;;;16.88;80.40;101890.31;7410809;19;19918;-78
2023/08/24 04:58:43;;;;;;;9.02;5.28;;;;;;;16.85;81.06;101892.59;7408937;19;19922;-78
2023/08/24 05:01:12;;;;;;;10.20;5.55;;;;;;;16.82;81.09;101893.84;7406051;19;20009;-78
2023/08/24 05:03:42;;;;;;;8.25;5.03;;;;;;;16.80;81.14;101887.72;7405595;19;19935;-78
2023/08/24 05:06:14;;;;;;;9.70;5.53;;;;;;;16.76;80.73;101881.84;7405874;19;19919;-78
2023/08/24 05:08:43;;;;;;;8.80;5.32;;;;;;;16.75;81.02;101885.59;7404708;19;19938;-80
2023/08/24 05:11:15;;;;;;;8.32;4.65;;;;;;;16.75;80.78;101885.59;7406387;19;19919;-78
2023/08/24 05:13:47;;;;;;;9.25;5.18;;;;;;;16.75;80.99;101868.41;7406033;19;19917;-78
2023/08/24 05:16:16;;;;;;;9.90;6.05;;;;;;;16.73;80.93;101873.22;7405728;19;19911;-78
2023/08/24 05:18:44;;;;;;;6.47;4.90;;;;;;;16.73;80.89;101879.50;7405026;19;19942;-78
2023/08/24 05:21:16;;;;;;;8.55;5.07;;;;;;;16.75;80.75;101887.47;7405426;19;20257;-78
2023/08/24 05:23:45;;;;;;;6.68;4.45;;;;;;;16.76;80.84;101890.00;7407503;19;19931;-78
2023/08/24 05:26:13;;;;;;;8.48;4.70;;;;;;;16.76;80.82;101889.16;7407100;19;19934;-79
2023/08/24 05:28:42;;;;;;;9.02;5.13;;;;;;;16.73;81.80;101889.53;7405965;19;19918;-78
2023/08/24 05:31:11;;;;;;;8.82;4.70;;;;;;;16.74;81.12;101888.47;7406394;19;19910;-78
2023/08/24 05:33:42;;;;;;;6.80;4.72;;;;;;;16.77;81.25;101875.38;7404685;19;19915;-78
2023/08/24 05:36:10;;;;;;;9.43;4.72;;;;;;;16.82;81.07;101888.41;7406620;19;20010;-78
2023/08/24 05:38:46;;;;;;;8.77;4.93;;;;;;;16.87;81.19;101883.19;7403290;19;19918;-78
2023/08/24 05:41:14;;;;;;;9.48;5.07;;;;;;;16.93;80.87;101878.84;7404871;19;20347;-78
2023/08/24 05:43:43;;;;;;;8.57;4.38;;;;;;;16.99;80.98;101881.66;7404425;19;19942;-78
2023/08/24 05:46:12;;;;;;;7.70;4.70;;;;;;;17.05;81.31;101871.84;7404444;19;20343;-77
2023/08/24 05:48:41;;;;;;;7.40;4.10;;;;;;;17.11;80.76;101871.94;7404797;19;19915;-78
2023/08/24 05:51:12;;;;;;;8.55;4.65;;;;;;;17.17;80.68;101873.84;7404398;19;19939;-78
2023/08/24 05:53:44;;;;;;;6.47;4.40;;;;;;;17.24;80.81;101874.78;7404788;19;20347;-78
2023/08/24 05:56:12;;;;;;;;;;;;;;;17.11;81.67;101882.81;7406841;19;19914;-77
2023/08/24 05:58:40;;;;;;;6.93;4.18;;;;;;;17.30;80.60;101869.59;7403623;19;19914;-79
2023/08/24 06:01:09;;;;;;;6.30;3.92;;;;;;;17.33;80.78;101880.06;7404127;19;19918;-78
2023/08/24 06:03:38;;;;;;;7.90;4.72;;;;;;;17.35;80.77;101877.97;7404549;19;20311;-78
2023/08/24 06:06:08;;;;;;;9.13;5.50;;;;;;;17.38;80.44;101880.31;7404389;19;19918;-78
2023/08/24 06:08:38;;;;;;;5.32;3.70;;;;;;;17.41;80.46;101885.38;7402687;19;19938;-78
2023/08/24 06:11:09;;;;;;;8.07;4.10;;;;;;;17.41;80.40;101886.22;7404500;19;19952;-78
2023/08/24 06:13:38;;;;;;;6.95;4.10;;;;;;;17.42;80.30;101890.63;7404325;19;19917;-78
2023/08/24 06:16:07;;;;;;;6.22;4.20;;;;;;;17.43;80.22;101880.59;7404152;19;20613;-79
2023/08/24 06:18:35;;;;;;;7.13;4.13;;;;;;;17.44;80.24;101872.19;7404443;19;20236;-78
2023/08/24 06:21:04;;;;;;;8.02;4.50;;;;;;;17.46;80.23;101863.84;7403708;19;20649;-78
2023/08/24 06:23:33;;;;;;;11.73;4.35;;;;;;;17.46;80.59;101858.38;7403640;19;19933;-79
2023/08/24 06:26:02;;;;;;;6.25;3.95;;;;;;;17.49;80.13;101858.81;7403103;19;19914;-78
2023/08/24 06:28:33;;;;;;;6.47;4.30;;;;;;;17.54;80.33;101863.69;7403793;19;20327;-78
2023/08/24 06:31:03;;;;;;;7.00;4.10;;;;;;;17.56;80.06;101869.78;7403162;19;19922;-78
2023/08/24 06:33:32;;;;;;;7.68;4.40;;;;;;;17.61;79.73;101862.72;7403123;19;19921;-78
2023/08/24 06:36:00;;;;;;;5.57;3.60;;;;;;;17.66;80.07;101864.84;7403578;19;19938;-77
2023/08/24 06:38:29;;;;;;;15.23;4.80;;;;;;;17.70;79.69;101863.41;7401842;19;19919;-79
2023/08/24 06:40:58;;;;;;;5.78;3.97;;;;;;;17.75;79.47;101851.91;7404183;19;19926;-78
2023/08/24 06:43:28;;;;;;;11.48;4.15;;;;;;;17.81;79.25;101848.38;7402899;19;19917;-78
2023/08/24 06:46:00;;;;;;;11.43;3.90;;;;;;;17.86;79.31;101844.00;7402434;19;19922;-78
2023/08/24 06:48:28;;;;;;;;;;;;;;;17.74;80.59;101847.47;7405972;19;19927;-78
2023/08/24 06:50:56;;;;;;;6.22;3.70;;;;;;;17.91;79.11;101844.25;7402871;19;19914;-78
2023/08/24 06:53:25;;;;;;;8.25;3.50;;;;;;;18.00;79.54;101834.00;7403311;19;19928;-78
2023/08/24 06:55:57;;;;;;;7.55;3.30;;;;;;;18.06;79.10;101841.38;7404554;19;19942;-78
2023/08/24 06:58:25;;;;;;;9.73;3.67;;;;;;;18.13;79.07;101834.06;7406686;19;20353;-77
2023/08/24 07:01:00;;;;;;;6.65;3.53;;;;;;;18.14;78.76;101833.88;7408375;19;19946;-78
2023/08/24 07:03:29;;;;;;;5.15;3.38;;;;;;;18.20;78.75;101823.19;7408167;19;19915;-78
2023/08/24 07:05:58;;;;;;;5.93;3.63;;;;;;;18.24;78.56;101817.13;7403586;19;19918;-77
2023/08/24 07:08:26;;;;;;;7.70;3.35;;;;;;;18.30;78.39;101812.72;7401870;19;19923;-79
2023/08/24 07:10:56;;;;;;;7.25;4.30;;;;;;;18.35;78.20;101811.06;7402327;19;19924;-78
2023/08/24 07:13:26;;;;;;;5.93;3.60;;;;;;;18.39;78.49;101809.63;7402404;19;19922;-76
2023/08/24 07:15:55;;;;;;;7.70;3.60;;;;;;;18.44;78.55;101807.13;7401936;19;19918;-78
2023/08/24 07:18:26;;;;;;;7.40;3.78;;;;;;;18.49;78.53;101796.44;7401904;19;19914;-78
2023/08/24 07:20:56;;;;;;;5.63;3.15;;;;;;;18.55;78.40;101790.16;7398224;19;20579;-78
2023/08/24 07:23:25;;;;;;;8.70;3.50;;;;;;;18.62;78.07;101789.34;7402071;19;19919;-78
2023/08/24 07:25:54;;;;;;;7.85;4.60;;;;;;;18.68;78.31;101796.72;7401430;19;20261;-78
2023/08/24 07:28:23;;;;;;;8.10;4.00;;;;;;;18.71;77.98;101782.66;7402569;19;19949;-78
2023/08/24 07:30:55;;;;;;;8.20;4.35;;;;;;;18.75;78.39;101779.28;7401218;19;19950;-78
2023/08/24 07:33:28;;;;;;;8.98;4.00;;;;;;;18.81;78.13;101774.91;7399489;19;19929;-78
2023/08/24 07:35:56;;;;;;;5.68;4.03;;;;;;;18.85;77.70;101770.69;7400626;19;19927;-78
2023/08/24 07:38:25;;;;;;;6.78;3.83;;;;;;;18.91;77.87;101767.94;7400171;19;19931;-77
2023/08/24 07:40:54;;;;;;;6.25;4.13;;;;;;;18.97;77.72;101772.59;7397606;19;19934;-78
2023/08/24 07:43:22;;;;;;;7.20;4.60;;;;;;;19.06;77.22;101769.63;7399410;19;20332;-78
2023/08/24 07:45:51;;;;;;;8.55;4.30;;;;;;;19.11;76.71;101776.16;7399158;19;19923;-78
2023/08/24 07:48:20;;;;;;;10.80;4.97;;;;;;;19.16;76.53;101768.13;7399205;19;19938;-77
2023/08/24 07:50:51;;;;;;;8.77;5.30;;;;;;;19.21;76.14;101760.16;7399315;19;20249;-77
2023/08/24 07:53:20;;;;;;;7.35;4.15;;;;;;;19.27;76.62;101753.84;7398880;19;20480;-77
2023/08/24 07:55:48;;;;;;;7.28;4.95;;;;;;;19.34;76.34;101759.28;7399168;19;19933;-77
2023/08/24 07:58:17;;;;;;;7.18;5.03;;;;;;;19.44;76.00;101757.00;7399113;19;20265;-78
2023/08/24 08:00:46;;;;;;;6.80;5.07;;;;;;;19.50;75.65;101749.84;7397048;19;20333;-77
2023/08/24 08:03:14;;;;;;;11.50;5.47;;;;;;;19.56;74.94;101752.56;7398584;19;19918;-77
2023/08/24 08:05:43;;;;;;;9.02;5.28;;;;;;;19.64;75.36;101748.75;7398366;19;19928;-77
2023/08/24 08:08:15;;;;;;;8.43;4.95;;;;;;;19.73;75.55;101753.75;7397446;19;19907;-77
2023/08/24 08:10:44;;;;;;;8.60;5.32;;;;;;;19.82;75.16;101752.47;7398254;19;19911;-77
2023/08/24 08:13:14;;;;;;;7.10;4.93;;;;;;;19.90;74.21;101748.63;7397969;19;19918;-77
2023/08/24 08:15:42;;;;;;;10.90;4.72;;;;;;;19.97;73.93;101746.72;7398127;19;19918;-77
2023/08/24 08:18:11;;;;;;;9.98;5.63;;;;;;;20.04;73.78;101746.69;7398105;19;19915;-78
2023/08/24 08:20:42;;;;;;;8.27;4.28;;;;;;;20.12;73.08;101743.69;7396977;19;19918;-77
2023/08/24 08:23:10;;;;;;;6.82;4.20;;;;;;;20.17;72.80;101739.25;7398016;19;19922;-78
2023/08/24 08:25:42;;;;;;;10.13;3.88;;;;;;;20.21;72.55;101734.19;7398039;19;19914;-78
2023/08/24 08:28:11;;;;;;;6.85;4.28;;;;;;;20.28;72.06;101745.91;7398858;19;19922;-77
2023/08/24 08:30:39;;;;;;;6.55;4.28;;;;;;;20.34;71.68;101756.88;7397912;19;20839;-78
2023/08/24 08:33:08;;;;;;;6.60;4.03;;;;;;;20.39;71.30;101750.75;7403440;19;19914;-78
2023/08/24 08:35:36;;;;;;;9.30;4.03;;;;;;;20.47;72.17;101749.63;7404639;19;20288;-77
2023/08/24 08:38:06;;;;;;;4.75;3.53;;;;;;;20.54;71.47;101729.34;7403124;19;19918;-77
2023/08/24 08:40:34;;;;;;;10.93;4.00;;;;;;;20.63;71.44;101730.75;7402782;19;19944;-77
2023/08/24 08:43:06;;;;;;;9.82;3.92;;;;;;;20.71;70.90;101733.22;7404396;19;20317;-78
2023/08/24 08:45:35;;;;;;;;;;;;;;;20.65;70.48;101742.34;7406982;19;20371;-78
2023/08/24 08:48:05;;;;;;;6.95;3.88;;;;;;;20.85;70.51;101739.44;7403982;19;19942;-77
2023/08/24 08:50:35;;;;;;;7.35;3.97;;;;;;;20.95;70.78;101737.03;7404362;19;19925;-77
2023/08/24 08:53:04;;;;;;;7.00;3.53;;;;;;;21.05;70.26;101729.16;7403348;19;19918;-77
2023/08/24 08:55:33;;;;;;;4.95;4.07;;;;;;;21.15;69.38;101740.47;7403586;19;19942;-78
2023/08/24 08:58:05;;;;;;;8.15;3.92;;;;;;;21.24;69.42;101738.25;7403587;19;19930;-77
2023/08/24 09:00:35;;;;;;;7.95;4.10;;;;;;;21.32;69.61;101746.19;7402398;19;19925;-78
2023/08/24 09:03:05;;;;;;;8.30;4.35;;;;;;;21.36;69.13;101744.66;7403479;19;19919;-78
2023/08/24 09:05:35;;;;;;;7.43;3.03;;;;;;;21.41;69.55;101736.59;7403526;19;20285;-77
2023/08/24 09:08:05;;;;;;;9.95;3.78;;;;;;;21.51;68.97;101722.38;7402704;19;19966;-77
2023/08/24 09:10:33;;;;;;;6.82;3.67;;;;;;;21.63;68.73;101707.66;7403455;19;20261;-77
2023/08/24 09:13:06;;;;;;;7.80;3.80;;;;;;;21.70;68.57;101686.47;7403513;19;19914;-78
2023/08/24 09:15:37;;;;;;;7.55;4.13;;;;;;;21.85;68.81;101675.09;7403588;19;19930;-77
2023/08/24 09:18:07;;;;;;;7.13;4.13;;;;;;;21.99;68.91;101676.63;7403168;19;19919;-78
2023/08/24 09:20:37;;;;;;;7.35;3.70;;;;;;;22.11;68.96;101669.28;7401545;19;20480;-78
2023/08/24 09:23:07;;;;;;;8.70;4.53;;;;;;;22.23;68.05;101680.28;7402974;19;19914;-78
2023/08/24 09:25:55;;;;;;;8.35;5.10;;;;;;;22.29;67.24;101682.09;7401270;19;19917;-78
2023/08/24 09:28:27;;;;;;;6.32;4.63;;;;;;;22.33;67.62;101674.22;7402926;19;19922;-78
2023/08/24 09:30:57;;;;;;;8.25;4.90;;;;;;;22.38;67.39;101679.84;7402814;19;19923;-79
2023/08/24 09:33:25;;;;;;;6.75;4.28;;;;;;;22.42;66.41;101683.81;7402670;19;19929;-78
2023/08/24 09:36:01;;;;;;;7.10;4.72;;;;;;;22.48;66.25;101689.19;7404182;19;19934;-78
2023/08/24 09:38:30;;;;;;;8.43;4.60;;;;;;;22.56;66.05;101688.81;7401089;19;20280;-78
2023/08/24 09:40:59;;;;;;;8.90;4.90;;;;;;;22.59;66.15;101691.13;7401919;19;20264;-78
2023/08/24 09:43:33;;;;;;;9.50;5.28;;;;;;;22.61;66.45;101680.72;7401811;19;19942;-78
2023/08/24 09:46:03;;;;;;;10.60;5.53;;;;;;;22.67;66.41;101680.84;7402627;19;19918;-78
2023/08/24 09:48:33;;;;;;;10.52;5.28;;;;;;;22.73;66.69;101677.19;7402478;19;20361;-78
2023/08/24 09:51:06;;;;;;;11.15;4.97;;;;;;;22.76;65.75;101666.56;7402157;19;19922;-78
2023/08/24 09:53:39;;;;;;;6.07;4.28;;;;;;;22.79;66.46;101654.25;7402755;19;20363;-78
2023/08/24 09:56:12;;;;;;;9.15;5.88;;;;;;;22.81;66.14;101643.88;7402234;19;19929;-76
2023/08/24 09:58:45;;;;;;;9.35;5.28;;;;;;;22.81;66.79;101644.72;7402398;19;19937;-76
2023/08/24 10:01:15;;;;;;;9.27;4.88;;;;;;;22.83;66.31;101634.31;7401509;19;19961;-78
2023/08/24 10:03:47;;;;;;;10.65;4.97;;;;;;;22.87;66.40;101645.66;7402762;19;19919;-76
2023/08/24 10:06:17;;;;;;;10.25;4.65;;;;;;;22.90;66.78;101653.44;7402803;19;20146;-76
2023/08/24 10:08:48;;;;;;;7.22;4.88;;;;;;;22.95;67.00;101645.31;7403179;19;20448;-76
2023/08/24 10:11:22;;;;;;;11.63;5.65;;;;;;;22.96;66.70;101649.72;7405021;19;19914;-76
2023/08/24 10:14:03;;;;;;;6.75;5.38;;;;;;;22.91;65.39;101635.88;7410752;19;19925;-76
2023/08/24 10:16:33;;;;;;;10.70;5.88;;;;;;;22.95;66.80;101637.06;7408428;19;19910;-77
2023/08/24 10:19:03;;;;;;;6.78;5.70;;;;;;;22.95;66.36;101628.81;7401739;19;19919;-76
2023/08/24 10:21:33;;;;;;;7.45;5.35;;;;;;;22.96;66.76;101631.31;7400010;19;19923;-76
2023/08/24 10:24:04;;;;;;;7.50;4.93;;;;;;;22.95;65.79;101626.88;7401421;19;19922;-76
2023/08/24 10:26:34;;;;;;;7.40;5.93;;;;;;;22.94;66.17;101614.25;7401481;19;19914;-75
2023/08/24 10:29:06;;;;;;;7.97;5.65;;;;;;;22.97;66.49;101618.41;7401314;19;20318;-76
2023/08/24 10:31:36;;;;;;;8.23;5.65;;;;;;;23.00;66.41;101599.53;7401158;19;19965;-76
2023/08/24 10:34:09;;;;;;;10.05;4.97;;;;;;;23.01;66.03;101594.84;7401190;19;20380;-76
2023/08/24 10:36:40;;;;;;;8.18;5.60;;;;;;;23.01;65.70;101587.44;7400774;19;19918;-76
2023/08/24 10:39:10;;;;;;;9.88;5.05;;;;;;;23.01;65.79;101576.47;7401005;19;19919;-76
2023/08/24 10:41:52;;;;;;;8.23;5.00;;;;;;;22.98;65.70;101570.63;7399449;19;19923;-78
2023/08/24 10:44:37;;;;;;;9.60;5.75;;;;;;;23.00;65.48;101568.44;7401772;19;20361;-78
2023/08/24 10:47:14;;;;;;;12.23;5.38;;;;;;;23.01;65.26;101567.38;7402326;19;20345;-78
2023/08/24 10:49:43;;;;;;;11.00;5.13;;;;;;;23.01;65.65;101562.72;7406642;19;19919;-78
2023/08/24 10:52:22;;;;;;;8.98;5.07;;;;;;;22.98;65.41;101565.97;7401435;19;19938;-78
2023/08/24 10:54:53;;;;;;;9.45;5.53;;;;;;;23.01;65.65;101564.63;7399140;19;19918;-78
2023/08/24 10:57:24;;;;;;;7.22;5.00;;;;;;;22.99;65.91;101561.31;7400932;19;20281;-78
2023/08/24 11:00:09;;;;;;;6.65;4.72;;;;;;;22.93;65.16;101554.00;7400826;19;19922;-76
2023/08/24 11:02:48;;;;;;;11.27;4.82;;;;;;;22.95;66.52;101554.63;7400240;19;20007;-77
2023/08/24 11:05:24;;;;;;;9.88;4.72;;;;;;;22.95;65.38;101560.13;7400499;19;19918;-77
2023/08/24 11:07:55;;;;;;;7.57;4.65;;;;;;;22.98;65.75;101543.13;7400120;19;19918;-77
2023/08/24 11:10:25;;;;;;;8.05;4.80;;;;;;;23.00;65.40;101541.81;7399992;19;20380;-77
2023/08/24 11:13:13;;;;;;;7.38;4.22;;;;;;;23.00;65.33;101529.97;7400061;19;19939;-77
2023/08/24 11:15:54;;;;;;;9.50;5.15;;;;;;;23.12;65.71;101525.31;7399798;19;19915;-77
2023/08/24 11:18:26;;;;;;;7.95;4.57;;;;;;;23.24;65.55;101514.25;7399693;19;19930;-77
2023/08/24 11:20:55;;;;;;;;;;;;;;;23.19;65.06;101517.75;7401935;19;19923;-77
2023/08/24 11:23:26;;;;;;;12.52;5.32;;;;;;;23.39;64.47;101517.28;7399512;19;20347;-77
2023/08/24 11:25:57;;;;;;;8.10;4.70;;;;;;;23.47;64.76;101500.44;7399360;19;19918;-77
2023/08/24 11:28:27;;;;;;;8.20;4.60;;;;;;;23.60;64.01;101502.06;7399365;19;19911;-77
2023/08/24 11:30:59;;;;;;;7.82;4.88;;;;;;;23.72;64.72;101502.81;7398620;19;19923;-77
2023/08/24 11:33:32;;;;;;;7.47;5.20;;;;;;;23.83;63.46;101512.91;7399261;19;20340;-77
2023/08/24 11:36:02;;;;;;;8.90;5.88;;;;;;;23.96;63.28;101507.91;7403234;19;20455;-77
2023/08/24 11:38:41;;;;;;;9.35;5.40;;;;;;;24.08;62.33;101504.22;7398207;19;19927;-78